sensor_id;sensor_type;location;lat;lon;timestamp;temperature;humidity
1005;DHT22;491;53.480;10.174;2022-10-04T00:01:48;10.00;99.90
1005;DHT22;491;53.480;10.174;2022-10-04T00:04:22;9.90;99.90
1005;DHT22;491;53.480;10.174;2022-10-04T00:06:53;9.90;99.90
1005;DHT22;491;53.480;10.174;2022-10-04T00:09:28;9.90;99.90
1005;DHT22;491;53.480;10.174;2022-10-04T00:11:56;9.80;99.90
1005;DHT22;491;53.480;10.174;2022-10-04T00:14:30;9.80;99.90
1005;DHT22;491;53.480;10.174;2022-10-04T00:16:57;9.80;99.90
1005;DHT22;491;53.480;10.174;2022-10-04T00:19:49;9.80;99.90
1005;DHT22;491;53.480;10.174;2022-10-04T00:22:21;9.70;99.90
1005;DHT22;491;53.480;10.174;2022-10-04T00:25:02;9.60;99.90
1005;DHT22;491;53.480;10.174;2022-10-04T00:27:39;9.60;99.90
1005;DHT22;491;53.480;10.174;2022-10-04T00:30:37;9.40;99.90
1005;DHT22;491;53.480;10.174;2022-10-04T00:33:03;9.40;99.90
1005;DHT22;491;53.480;10.174;2022-10-04T00:38:14;9.40;99.90
1005;DHT22;491;53.480;10.174;2022-10-04T00:41:02;9.40;99.90
1005;DHT22;491;53.480;10.174;2022-10-04T00:43:56;9.40;99.90
1005;DHT22;491;53.480;10.174;2022-10-04T00:46:23;9.50;99.90
1005;DHT22;491;53.480;10.174;2022-10-04T00:48:59;9.40;99.90
1005;DHT22;491;53.480;10.174;2022-10-04T00:51:38;9.30;99.90
1005;DHT22;491;53.480;10.174;2022-10-04T00:56:50;9.20;99.90
1005;DHT22;491;53.480;10.174;2022-10-04T00:59:42;9.20;99.90
1005;DHT22;491;53.480;10.174;2022-10-04T01:04:50;9.20;99.90
1005;DHT22;491;53.480;10.174;2022-10-04T01:07:25;9.20;99.90
1005;DHT22;491;53.480;10.174;2022-10-04T01:10:06;9.20;99.90
1005;DHT22;491;53.480;10.174;2022-10-04T01:16:02;9.20;99.90
1005;DHT22;491;53.480;10.174;2022-10-04T01:18:31;9.10;99.90
1005;DHT22;491;53.480;10.174;2022-10-04T01:26:45;9.20;99.90
1005;DHT22;491;53.480;10.174;2022-10-04T01:28:56;9.20;99.90
1005;DHT22;491;53.480;10.174;2022-10-04T01:31:27;9.20;99.90
1005;DHT22;491;53.480;10.174;2022-10-04T01:33:54;9.30;99.90
1005;DHT22;491;53.480;10.174;2022-10-04T01:36:20;9.30;99.90
1005;DHT22;491;53.480;10.174;2022-10-04T01:38:46;9.30;99.90
1005;DHT22;491;53.480;10.174;2022-10-04T01:41:13;9.30;99.90
1005;DHT22;491;53.480;10.174;2022-10-04T01:43:42;9.30;99.90
1005;DHT22;491;53.480;10.174;2022-10-04T01:46:13;9.30;99.90
1005;DHT22;491;53.480;10.174;2022-10-04T01:48:42;9.30;99.90
1005;DHT22;491;53.480;10.174;2022-10-04T01:51:25;9.40;99.90
1005;DHT22;491;53.480;10.174;2022-10-04T01:54:09;9.40;99.90
1005;DHT22;491;53.480;10.174;2022-10-04T01:56:48;9.50;99.90
1005;DHT22;491;53.480;10.174;2022-10-04T01:59:20;9.50;99.90
1005;DHT22;491;53.480;10.174;2022-10-04T02:01:54;9.40;99.90
1005;DHT22;491;53.480;10.174;2022-10-04T02:04:26;9.30;99.90
1005;DHT22;491;53.480;10.174;2022-10-04T02:06:54;9.20;99.90
1005;DHT22;491;53.480;10.174;2022-10-04T02:09:31;9.20;99.90
1005;DHT22;491;53.480;10.174;2022-10-04T02:11:59;9.30;99.90
1005;DHT22;491;53.480;10.174;2022-10-04T02:14:31;9.30;99.90
1005;DHT22;491;53.480;10.174;2022-10-04T02:17:04;9.40;99.90
1005;DHT22;491;53.480;10.174;2022-10-04T02:19:37;9.40;99.90
1005;DHT22;491;53.480;10.174;2022-10-04T02:22:04;9.30;99.90
1005;DHT22;491;53.480;10.174;2022-10-04T02:24:35;9.40;99.90
1005;DHT22;491;53.480;10.174;2022-10-04T02:27:02;9.50;99.90
1005;DHT22;491;53.480;10.174;2022-10-04T02:29:28;9.50;99.90
1005;DHT22;491;53.480;10.174;2022-10-04T02:31:54;9.60;99.90
1005;DHT22;491;53.480;10.174;2022-10-04T02:34:40;9.70;99.90
1005;DHT22;491;53.480;10.174;2022-10-04T02:37:06;9.80;99.90
1005;DHT22;491;53.480;10.174;2022-10-04T02:39:48;9.90;99.90
1005;DHT22;491;53.480;10.174;2022-10-04T02:42:39;9.80;99.90
1005;DHT22;491;53.480;10.174;2022-10-04T02:45:42;9.80;99.90
1005;DHT22;491;53.480;10.174;2022-10-04T02:48:32;9.80;99.90
1005;DHT22;491;53.480;10.174;2022-10-04T02:54:15;10.00;99.90
1005;DHT22;491;53.480;10.174;2022-10-04T02:56:50;10.00;99.90
1005;DHT22;491;53.480;10.174;2022-10-04T02:59:17;10.00;99.90
1005;DHT22;491;53.480;10.174;2022-10-04T03:02:00;10.00;99.90
1005;DHT22;491;53.480;10.174;2022-10-04T03:04:29;10.00;99.90
1005;DHT22;491;53.480;10.174;2022-10-04T03:07:00;10.00;99.90
1005;DHT22;491;53.480;10.174;2022-10-04T03:09:26;10.00;99.90
1005;DHT22;491;53.480;10.174;2022-10-04T03:11:52;10.00;99.90
1005;DHT22;491;53.480;10.174;2022-10-04T03:14:21;10.10;99.90
1005;DHT22;491;53.480;10.174;2022-10-04T03:16:49;10.00;99.90
1005;DHT22;491;53.480;10.174;2022-10-04T03:19:16;10.00;99.90
1005;DHT22;491;53.480;10.174;2022-10-04T03:21:46;10.00;99.90
1005;DHT22;491;53.480;10.174;2022-10-04T03:24:27;9.90;99.90
1005;DHT22;491;53.480;10.174;2022-10-04T03:26:55;10.00;99.90
1005;DHT22;491;53.480;10.174;2022-10-04T03:29:24;10.00;99.90
1005;DHT22;491;53.480;10.174;2022-10-04T03:31:53;9.90;99.90
1005;DHT22;491;53.480;10.174;2022-10-04T03:34:24;9.90;99.90
1005;DHT22;491;53.480;10.174;2022-10-04T03:36:52;10.00;99.90
1005;DHT22;491;53.480;10.174;2022-10-04T03:42:26;9.90;99.90
1005;DHT22;491;53.480;10.174;2022-10-04T03:44:56;10.00;99.90
1005;DHT22;491;53.480;10.174;2022-10-04T03:47:30;10.00;99.90
1005;DHT22;491;53.480;10.174;2022-10-04T03:50:02;9.90;99.90
1005;DHT22;491;53.480;10.174;2022-10-04T03:52:31;9.80;99.90
1005;DHT22;491;53.480;10.174;2022-10-04T03:55:01;9.80;99.90
1005;DHT22;491;53.480;10.174;2022-10-04T03:57:29;9.80;99.90
1005;DHT22;491;53.480;10.174;2022-10-04T03:59:56;9.80;99.90
1005;DHT22;491;53.480;10.174;2022-10-04T04:02:27;9.80;99.90
1005;DHT22;491;53.480;10.174;2022-10-04T04:05:20;9.80;99.90
1005;DHT22;491;53.480;10.174;2022-10-04T04:08:02;9.80;99.90
1005;DHT22;491;53.480;10.174;2022-10-04T04:10:30;9.80;99.90
1005;DHT22;491;53.480;10.174;2022-10-04T04:15:37;9.70;99.90
1005;DHT22;491;53.480;10.174;2022-10-04T04:18:13;9.70;99.90
1005;DHT22;491;53.480;10.174;2022-10-04T04:20:41;9.60;99.90
1005;DHT22;491;53.480;10.174;2022-10-04T04:25:42;9.70;99.90
1005;DHT22;491;53.480;10.174;2022-10-04T04:28:27;9.60;99.90
1005;DHT22;491;53.480;10.174;2022-10-04T04:31:04;9.60;99.90
1005;DHT22;491;53.480;10.174;2022-10-04T04:33:45;9.60;99.90
1005;DHT22;491;53.480;10.174;2022-10-04T04:36:15;9.60;99.90
1005;DHT22;491;53.480;10.174;2022-10-04T04:38:41;9.60;99.90
1005;DHT22;491;53.480;10.174;2022-10-04T04:41:27;9.70;99.90
1005;DHT22;491;53.480;10.174;2022-10-04T04:43:56;9.70;99.90
1005;DHT22;491;53.480;10.174;2022-10-04T04:46:21;9.80;99.90
1005;DHT22;491;53.480;10.174;2022-10-04T04:48:50;9.70;99.90
1005;DHT22;491;53.480;10.174;2022-10-04T04:51:21;9.70;99.90
1005;DHT22;491;53.480;10.174;2022-10-04T04:53:48;9.70;99.90
1005;DHT22;491;53.480;10.174;2022-10-04T04:56:21;9.70;99.90
1005;DHT22;491;53.480;10.174;2022-10-04T04:58:49;9.70;99.90
1005;DHT22;491;53.480;10.174;2022-10-04T05:01:23;9.80;99.90
1005;DHT22;491;53.480;10.174;2022-10-04T05:04:20;10.00;99.90
1005;DHT22;491;53.480;10.174;2022-10-04T05:07:15;10.00;99.90
1005;DHT22;491;53.480;10.174;2022-10-04T05:09:43;10.10;99.90
1005;DHT22;491;53.480;10.174;2022-10-04T05:12:20;10.10;99.90
1005;DHT22;491;53.480;10.174;2022-10-04T05:14:50;10.10;99.90
1005;DHT22;491;53.480;10.174;2022-10-04T05:17:18;10.20;99.90
1005;DHT22;491;53.480;10.174;2022-10-04T05:19:45;10.10;99.90
1005;DHT22;491;53.480;10.174;2022-10-04T05:22:12;10.10;99.90
1005;DHT22;491;53.480;10.174;2022-10-04T05:24:44;10.10;99.90
1005;DHT22;491;53.480;10.174;2022-10-04T05:30:07;10.10;99.90
1005;DHT22;491;53.480;10.174;2022-10-04T05:32:47;10.10;99.90
1005;DHT22;491;53.480;10.174;2022-10-04T05:35:17;10.10;99.90
1005;DHT22;491;53.480;10.174;2022-10-04T05:40:38;10.00;99.90
1005;DHT22;491;53.480;10.174;2022-10-04T05:43:28;10.00;99.90
1005;DHT22;491;53.480;10.174;2022-10-04T05:46:13;10.00;99.90
1005;DHT22;491;53.480;10.174;2022-10-04T05:48:40;9.90;99.90
1005;DHT22;491;53.480;10.174;2022-10-04T05:51:26;10.00;99.90
1005;DHT22;491;53.480;10.174;2022-10-04T05:53:53;10.00;99.90
1005;DHT22;491;53.480;10.174;2022-10-04T06:07:27;10.10;99.90
1005;DHT22;491;53.480;10.174;2022-10-04T06:18:37;10.00;99.90
1005;DHT22;491;53.480;10.174;2022-10-04T06:21:24;10.00;99.90
1005;DHT22;491;53.480;10.174;2022-10-04T06:23:58;10.00;99.90
1005;DHT22;491;53.480;10.174;2022-10-04T06:26:47;10.10;99.90
1005;DHT22;491;53.480;10.174;2022-10-04T06:29:19;10.10;99.90
1005;DHT22;491;53.480;10.174;2022-10-04T06:37:31;10.30;99.90
1005;DHT22;491;53.480;10.174;2022-10-04T06:43:18;10.30;99.90
1005;DHT22;491;53.480;10.174;2022-10-04T06:59:58;15.00;99.90
1005;DHT22;491;53.480;10.174;2022-10-04T07:02:42;15.70;1.00
1005;DHT22;491;53.480;10.174;2022-10-04T07:07:41;17.20;99.90
1005;DHT22;491;53.480;10.174;2022-10-04T07:15:33;17.60;74.40
1005;DHT22;491;53.480;10.174;2022-10-04T07:18:15;18.30;99.90
1005;DHT22;491;53.480;10.174;2022-10-04T07:20:43;18.90;99.90
1005;DHT22;491;53.480;10.174;2022-10-04T07:23:15;19.00;99.90
1005;DHT22;491;53.480;10.174;2022-10-04T07:25:51;17.30;1.00
1005;DHT22;491;53.480;10.174;2022-10-04T07:28:22;15.40;14.00
1005;DHT22;491;53.480;10.174;2022-10-04T07:31:45;15.30;85.40
1005;DHT22;491;53.480;10.174;2022-10-04T07:34:24;14.80;99.90
1005;DHT22;491;53.480;10.174;2022-10-04T07:36:54;14.50;99.90
1005;DHT22;491;53.480;10.174;2022-10-04T07:39:23;14.30;99.90
1005;DHT22;491;53.480;10.174;2022-10-04T07:44:36;13.70;99.90
1005;DHT22;491;53.480;10.174;2022-10-04T07:47:23;13.40;99.90
1005;DHT22;491;53.480;10.174;2022-10-04T07:49:55;13.10;99.90
1005;DHT22;491;53.480;10.174;2022-10-04T07:53:03;13.10;99.90
1005;DHT22;491;53.480;10.174;2022-10-04T07:55:49;13.00;99.90
1005;DHT22;491;53.480;10.174;2022-10-04T08:01:36;13.10;99.90
1005;DHT22;491;53.480;10.174;2022-10-04T08:07:01;13.20;99.90
1005;DHT22;491;53.480;10.174;2022-10-04T08:09:36;13.20;99.90
1005;DHT22;491;53.480;10.174;2022-10-04T08:20:45;13.40;99.90
1005;DHT22;491;53.480;10.174;2022-10-04T08:26:27;13.60;99.90
1005;DHT22;491;53.480;10.174;2022-10-04T08:29:33;13.70;99.90
1005;DHT22;491;53.480;10.174;2022-10-04T08:32:28;14.00;99.90
1005;DHT22;491;53.480;10.174;2022-10-04T08:38:16;14.30;99.90
1005;DHT22;491;53.480;10.174;2022-10-04T08:47:24;15.50;99.90
1005;DHT22;491;53.480;10.174;2022-10-04T08:50:33;15.90;99.90
1005;DHT22;491;53.480;10.174;2022-10-04T08:59:17;16.60;4.70
1005;DHT22;491;53.480;10.174;2022-10-04T09:08:13;15.30;99.90
1005;DHT22;491;53.480;10.174;2022-10-04T09:14:26;15.40;99.90
1005;DHT22;491;53.480;10.174;2022-10-04T09:23:08;15.70;99.90
1005;DHT22;491;53.480;10.174;2022-10-04T09:32:18;15.70;99.90
1005;DHT22;491;53.480;10.174;2022-10-04T10:00:21;16.40;15.30
1005;DHT22;491;53.480;10.174;2022-10-04T10:03:18;16.50;99.90
1005;DHT22;491;53.480;10.174;2022-10-04T10:09:06;16.50;99.90
1005;DHT22;491;53.480;10.174;2022-10-04T10:11:56;16.60;99.90
1005;DHT22;491;53.480;10.174;2022-10-04T10:15:14;16.50;99.90
1005;DHT22;491;53.480;10.174;2022-10-04T10:17:54;16.50;99.90
1005;DHT22;491;53.480;10.174;2022-10-04T10:24:07;16.40;27.00
1005;DHT22;491;53.480;10.174;2022-10-04T10:26:46;16.30;17.50
1005;DHT22;491;53.480;10.174;2022-10-04T10:32:43;16.50;92.00
1005;DHT22;491;53.480;10.174;2022-10-04T10:38:22;16.70;1.00
1005;DHT22;491;53.480;10.174;2022-10-04T10:43:50;17.80;99.90
1005;DHT22;491;53.480;10.174;2022-10-04T10:46:48;19.20;1.00
1005;DHT22;491;53.480;10.174;2022-10-04T10:49:39;21.60;1.00
1005;DHT22;491;53.480;10.174;2022-10-04T10:58:19;23.20;99.90
1005;DHT22;491;53.480;10.174;2022-10-04T11:01:23;23.60;99.90
1005;DHT22;491;53.480;10.174;2022-10-04T11:06:56;21.90;99.90
1005;DHT22;491;53.480;10.174;2022-10-04T11:28:17;21.40;99.90
1005;DHT22;491;53.480;10.174;2022-10-04T11:42:56;23.60;99.90
1005;DHT22;491;53.480;10.174;2022-10-04T11:45:52;24.30;99.90
1005;DHT22;491;53.480;10.174;2022-10-04T11:48:32;24.10;99.90
1005;DHT22;491;53.480;10.174;2022-10-04T11:53:46;24.50;99.90
1005;DHT22;491;53.480;10.174;2022-10-04T11:56:30;24.50;99.90
1005;DHT22;491;53.480;10.174;2022-10-04T12:05:05;24.30;99.90
1005;DHT22;491;53.480;10.174;2022-10-04T12:07:57;24.10;99.90
1005;DHT22;491;53.480;10.174;2022-10-04T12:10:33;24.20;99.90
1005;DHT22;491;53.480;10.174;2022-10-04T12:16:14;24.90;99.90
1005;DHT22;491;53.480;10.174;2022-10-04T12:21:52;23.90;99.90
1005;DHT22;491;53.480;10.174;2022-10-04T12:24:32;24.20;99.90
1005;DHT22;491;53.480;10.174;2022-10-04T12:35:19;20.80;99.90
1005;DHT22;491;53.480;10.174;2022-10-04T12:44:00;21.30;99.90
1005;DHT22;491;53.480;10.174;2022-10-04T12:49:05;20.90;99.90
1005;DHT22;491;53.480;10.174;2022-10-04T12:52:15;21.00;99.90
1005;DHT22;491;53.480;10.174;2022-10-04T12:54:51;20.70;99.90
1005;DHT22;491;53.480;10.174;2022-10-04T13:00:21;20.70;99.90
1005;DHT22;491;53.480;10.174;2022-10-04T13:03:15;20.60;99.90
1005;DHT22;491;53.480;10.174;2022-10-04T13:11:35;20.40;99.90
1005;DHT22;491;53.480;10.174;2022-10-04T13:16:49;19.90;99.90
1005;DHT22;491;53.480;10.174;2022-10-04T13:25:06;19.80;99.90
1005;DHT22;491;53.480;10.174;2022-10-04T13:27:41;19.70;99.90
1005;DHT22;491;53.480;10.174;2022-10-04T13:30:23;19.60;99.90
1005;DHT22;491;53.480;10.174;2022-10-04T13:36:26;19.20;99.90
1005;DHT22;491;53.480;10.174;2022-10-04T13:47:53;19.10;1.00
1005;DHT22;491;53.480;10.174;2022-10-04T13:53:32;19.10;1.00
1005;DHT22;491;53.480;10.174;2022-10-04T14:16:56;18.80;99.90
1005;DHT22;491;53.480;10.174;2022-10-04T14:20:02;18.90;1.00
1005;DHT22;491;53.480;10.174;2022-10-04T14:28:44;18.60;1.00
1005;DHT22;491;53.480;10.174;2022-10-04T14:34:23;18.50;99.90
1005;DHT22;491;53.480;10.174;2022-10-04T14:40:13;18.30;99.90
1005;DHT22;491;53.480;10.174;2022-10-04T14:46:07;18.30;1.00
1005;DHT22;491;53.480;10.174;2022-10-04T14:49:03;18.30;99.90
1005;DHT22;491;53.480;10.174;2022-10-04T14:55:07;18.10;1.00
1005;DHT22;491;53.480;10.174;2022-10-04T15:00:19;17.90;1.00
1005;DHT22;491;53.480;10.174;2022-10-04T15:03:16;17.90;1.00
1005;DHT22;491;53.480;10.174;2022-10-04T15:11:13;17.70;54.60
1005;DHT22;491;53.480;10.174;2022-10-04T15:13:50;17.60;99.90
1005;DHT22;491;53.480;10.174;2022-10-04T15:29:43;17.30;50.70
1005;DHT22;491;53.480;10.174;2022-10-04T15:40:59;17.20;47.20
1005;DHT22;491;53.480;10.174;2022-10-04T15:43:33;17.10;32.80
1005;DHT22;491;53.480;10.174;2022-10-04T15:46:27;17.10;1.00
1005;DHT22;491;53.480;10.174;2022-10-04T15:49:19;17.10;23.90
1005;DHT22;491;53.480;10.174;2022-10-04T15:57:28;16.90;1.00
1005;DHT22;491;53.480;10.174;2022-10-04T16:00:12;16.80;1.00
1005;DHT22;491;53.480;10.174;2022-10-04T16:02:47;16.80;93.40
1005;DHT22;491;53.480;10.174;2022-10-04T16:10:58;16.50;99.90
1005;DHT22;491;53.480;10.174;2022-10-04T16:13:31;16.50;1.00
1005;DHT22;491;53.480;10.174;2022-10-04T16:21:50;16.20;99.90
1005;DHT22;491;53.480;10.174;2022-10-04T16:32:21;15.80;1.00
1005;DHT22;491;53.480;10.174;2022-10-04T16:34:52;15.70;1.00
1005;DHT22;491;53.480;10.174;2022-10-04T16:45:40;15.30;1.00
1005;DHT22;491;53.480;10.174;2022-10-04T16:48:31;15.00;99.90
1005;DHT22;491;53.480;10.174;2022-10-04T16:56:21;14.50;99.90
1005;DHT22;491;53.480;10.174;2022-10-04T16:59:03;14.30;99.90
1005;DHT22;491;53.480;10.174;2022-10-04T17:01:42;14.10;99.90
1005;DHT22;491;53.480;10.174;2022-10-04T17:04:33;13.90;99.90
1005;DHT22;491;53.480;10.174;2022-10-04T17:07:17;13.90;99.90
1005;DHT22;491;53.480;10.174;2022-10-04T17:09:57;13.90;99.90
1005;DHT22;491;53.480;10.174;2022-10-04T17:15:24;13.80;99.90
1005;DHT22;491;53.480;10.174;2022-10-04T17:26:19;13.00;99.90
1005;DHT22;491;53.480;10.174;2022-10-04T17:37:02;12.70;99.90
1005;DHT22;491;53.480;10.174;2022-10-04T17:39:38;12.80;99.90
1005;DHT22;491;53.480;10.174;2022-10-04T17:48:07;12.50;99.90
1005;DHT22;491;53.480;10.174;2022-10-04T17:54:23;12.30;99.90
1005;DHT22;491;53.480;10.174;2022-10-04T18:00:04;12.20;99.90
1005;DHT22;491;53.480;10.174;2022-10-04T18:03:06;12.20;99.90
1005;DHT22;491;53.480;10.174;2022-10-04T18:05:46;12.20;99.90
1005;DHT22;491;53.480;10.174;2022-10-04T18:11:17;12.20;99.90
1005;DHT22;491;53.480;10.174;2022-10-04T18:14:09;12.10;99.90
1005;DHT22;491;53.480;10.174;2022-10-04T18:16:59;12.10;99.90
1005;DHT22;491;53.480;10.174;2022-10-04T18:19:43;12.10;99.90
1005;DHT22;491;53.480;10.174;2022-10-04T18:22:17;12.00;99.90
1005;DHT22;491;53.480;10.174;2022-10-04T18:25:01;11.90;99.90
1005;DHT22;491;53.480;10.174;2022-10-04T18:27:28;11.90;99.90
1005;DHT22;491;53.480;10.174;2022-10-04T18:30:13;11.80;99.90
1005;DHT22;491;53.480;10.174;2022-10-04T18:32:54;11.80;99.90
1005;DHT22;491;53.480;10.174;2022-10-04T18:35:30;11.70;99.90
1005;DHT22;491;53.480;10.174;2022-10-04T18:38:18;11.70;99.90
1005;DHT22;491;53.480;10.174;2022-10-04T18:40:57;11.60;99.90
1005;DHT22;491;53.480;10.174;2022-10-04T18:43:34;11.60;99.90
1005;DHT22;491;53.480;10.174;2022-10-04T18:48:52;11.50;99.90
1005;DHT22;491;53.480;10.174;2022-10-04T18:51:36;11.50;99.90
1005;DHT22;491;53.480;10.174;2022-10-04T18:54:41;11.50;99.90
1005;DHT22;491;53.480;10.174;2022-10-04T18:57:30;11.40;99.90
1005;DHT22;491;53.480;10.174;2022-10-04T19:00:07;11.40;99.90
1005;DHT22;491;53.480;10.174;2022-10-04T19:03:04;11.30;99.90
1005;DHT22;491;53.480;10.174;2022-10-04T19:05:55;11.30;99.90
1005;DHT22;491;53.480;10.174;2022-10-04T19:08:50;11.40;99.90
1005;DHT22;491;53.480;10.174;2022-10-04T19:11:19;11.40;99.90
1005;DHT22;491;53.480;10.174;2022-10-04T19:16:31;11.40;99.90
1005;DHT22;491;53.480;10.174;2022-10-04T19:22:01;11.30;99.90
1005;DHT22;491;53.480;10.174;2022-10-04T19:24:55;11.20;99.90
1005;DHT22;491;53.480;10.174;2022-10-04T19:27:33;11.20;99.90
1005;DHT22;491;53.480;10.174;2022-10-04T19:30:16;11.10;99.90
1005;DHT22;491;53.480;10.174;2022-10-04T19:33:03;11.00;99.90
1005;DHT22;491;53.480;10.174;2022-10-04T19:38:24;10.90;99.90
1005;DHT22;491;53.480;10.174;2022-10-04T19:44:16;10.80;99.90
1005;DHT22;491;53.480;10.174;2022-10-04T19:49:54;10.70;99.90
1005;DHT22;491;53.480;10.174;2022-10-04T19:57:41;10.60;99.90
1005;DHT22;491;53.480;10.174;2022-10-04T20:00:11;10.60;99.90
1005;DHT22;491;53.480;10.174;2022-10-04T20:02:43;10.60;99.90
1005;DHT22;491;53.480;10.174;2022-10-04T20:05:13;10.60;99.90
1005;DHT22;491;53.480;10.174;2022-10-04T20:07:40;10.60;99.90
1005;DHT22;491;53.480;10.174;2022-10-04T20:10:21;10.50;99.90
1005;DHT22;491;53.480;10.174;2022-10-04T20:13:21;10.50;99.90
1005;DHT22;491;53.480;10.174;2022-10-04T20:15:55;10.40;99.90
1005;DHT22;491;53.480;10.174;2022-10-04T20:26:08;10.20;99.90
1005;DHT22;491;53.480;10.174;2022-10-04T20:28:39;10.20;99.90
1005;DHT22;491;53.480;10.174;2022-10-04T20:33:54;10.00;99.90
1005;DHT22;491;53.480;10.174;2022-10-04T20:47:42;9.90;99.90
1005;DHT22;491;53.480;10.174;2022-10-04T20:50:30;10.00;99.90
1005;DHT22;491;53.480;10.174;2022-10-04T20:53:06;10.00;99.90
1005;DHT22;491;53.480;10.174;2022-10-04T20:55:36;10.10;99.90
1005;DHT22;491;53.480;10.174;2022-10-04T20:58:30;10.10;99.90
1005;DHT22;491;53.480;10.174;2022-10-04T21:00:59;10.10;99.90
1005;DHT22;491;53.480;10.174;2022-10-04T21:03:27;10.20;99.90
1005;DHT22;491;53.480;10.174;2022-10-04T21:06:03;10.20;99.90
1005;DHT22;491;53.480;10.174;2022-10-04T21:08:30;10.30;99.90
1005;DHT22;491;53.480;10.174;2022-10-04T21:11:10;10.30;99.90
1005;DHT22;491;53.480;10.174;2022-10-04T21:16:51;10.40;99.90
1005;DHT22;491;53.480;10.174;2022-10-04T21:21:59;10.60;99.90
1005;DHT22;491;53.480;10.174;2022-10-04T21:27:23;10.90;99.90
1005;DHT22;491;53.480;10.174;2022-10-04T21:29:52;11.10;99.90
1005;DHT22;491;53.480;10.174;2022-10-04T21:32:19;11.20;99.90
1005;DHT22;491;53.480;10.174;2022-10-04T21:34:44;11.30;99.90
1005;DHT22;491;53.480;10.174;2022-10-04T21:37:10;11.30;99.90
1005;DHT22;491;53.480;10.174;2022-10-04T21:39:36;11.40;99.90
1005;DHT22;491;53.480;10.174;2022-10-04T21:42:01;11.30;99.90
1005;DHT22;491;53.480;10.174;2022-10-04T21:44:27;11.30;99.90
1005;DHT22;491;53.480;10.174;2022-10-04T21:46:52;11.30;99.90
1005;DHT22;491;53.480;10.174;2022-10-04T21:49:18;11.20;99.90
1005;DHT22;491;53.480;10.174;2022-10-04T21:51:46;11.20;99.90
1005;DHT22;491;53.480;10.174;2022-10-04T21:54:12;11.20;99.90
1005;DHT22;491;53.480;10.174;2022-10-04T21:56:40;11.10;99.90
1005;DHT22;491;53.480;10.174;2022-10-04T21:59:05;11.00;99.90
1005;DHT22;491;53.480;10.174;2022-10-04T22:01:31;10.90;99.90
1005;DHT22;491;53.480;10.174;2022-10-04T22:03:56;10.90;99.90
1005;DHT22;491;53.480;10.174;2022-10-04T22:06:22;10.80;99.90
1005;DHT22;491;53.480;10.174;2022-10-04T22:08:47;10.80;99.90
1005;DHT22;491;53.480;10.174;2022-10-04T22:11:13;10.70;99.90
1005;DHT22;491;53.480;10.174;2022-10-04T22:13:38;10.60;99.90
1005;DHT22;491;53.480;10.174;2022-10-04T22:16:05;10.60;99.90
1005;DHT22;491;53.480;10.174;2022-10-04T22:18:31;10.50;99.90
1005;DHT22;491;53.480;10.174;2022-10-04T22:20:57;10.50;99.90
1005;DHT22;491;53.480;10.174;2022-10-04T22:23:25;10.50;99.90
1005;DHT22;491;53.480;10.174;2022-10-04T22:25:52;10.50;99.90
1005;DHT22;491;53.480;10.174;2022-10-04T22:28:25;10.40;99.90
1005;DHT22;491;53.480;10.174;2022-10-04T22:30:51;10.40;99.90
1005;DHT22;491;53.480;10.174;2022-10-04T22:33:33;10.50;99.90
1005;DHT22;491;53.480;10.174;2022-10-04T22:36:19;10.50;99.90
1005;DHT22;491;53.480;10.174;2022-10-04T22:38:50;10.50;99.90
1005;DHT22;491;53.480;10.174;2022-10-04T22:41:20;10.50;99.90
1005;DHT22;491;53.480;10.174;2022-10-04T22:43:47;10.60;99.90
1005;DHT22;491;53.480;10.174;2022-10-04T22:46:15;10.60;99.90
1005;DHT22;491;53.480;10.174;2022-10-04T22:48:43;10.50;99.90
1005;DHT22;491;53.480;10.174;2022-10-04T22:51:13;10.50;99.90
1005;DHT22;491;53.480;10.174;2022-10-04T22:53:45;10.50;99.90
1005;DHT22;491;53.480;10.174;2022-10-04T22:56:12;10.60;99.90
1005;DHT22;491;53.480;10.174;2022-10-04T22:58:39;10.50;99.90
1005;DHT22;491;53.480;10.174;2022-10-04T23:01:13;10.50;99.90
1005;DHT22;491;53.480;10.174;2022-10-04T23:03:39;10.50;99.90
1005;DHT22;491;53.480;10.174;2022-10-04T23:06:08;10.60;99.90
1005;DHT22;491;53.480;10.174;2022-10-04T23:08:39;10.60;99.90
1005;DHT22;491;53.480;10.174;2022-10-04T23:11:05;10.60;99.90
1005;DHT22;491;53.480;10.174;2022-10-04T23:13:30;10.70;99.90
1005;DHT22;491;53.480;10.174;2022-10-04T23:16:10;10.70;99.90
1005;DHT22;491;53.480;10.174;2022-10-04T23:18:36;10.70;99.90
1005;DHT22;491;53.480;10.174;2022-10-04T23:21:21;10.60;99.90
1005;DHT22;491;53.480;10.174;2022-10-04T23:23:48;10.40;99.90
1005;DHT22;491;53.480;10.174;2022-10-04T23:26:21;10.40;99.90
1005;DHT22;491;53.480;10.174;2022-10-04T23:28:50;10.30;99.90
1005;DHT22;491;53.480;10.174;2022-10-04T23:31:22;10.30;99.90
1005;DHT22;491;53.480;10.174;2022-10-04T23:33:49;10.30;99.90
1005;DHT22;491;53.480;10.174;2022-10-04T23:36:15;10.20;99.90
1005;DHT22;491;53.480;10.174;2022-10-04T23:38:53;10.20;99.90
1005;DHT22;491;53.480;10.174;2022-10-04T23:41:20;10.30;99.90
1005;DHT22;491;53.480;10.174;2022-10-04T23:43:47;10.40;99.90
1005;DHT22;491;53.480;10.174;2022-10-04T23:46:18;10.50;99.90
1005;DHT22;491;53.480;10.174;2022-10-04T23:48:45;10.60;99.90
1005;DHT22;491;53.480;10.174;2022-10-04T23:51:15;10.50;99.90
1005;DHT22;491;53.480;10.174;2022-10-04T23:53:45;10.60;99.90
1005;DHT22;491;53.480;10.174;2022-10-04T23:56:23;10.70;99.90
1005;DHT22;491;53.480;10.174;2022-10-04T23:58:50;10.60;99.90
